Time;durP1;ratioP1;P1;durP2;ratioP2;P2;SDS_P1;SDS_P2;PMS_P1;PMS_P2;Temp;Humidity;BMP_temperature;BMP_pressure;BME280_temperature;BME280_humidity;BME280_pressure;Samples;Min_cycle;Max_cycle;Signal;HPM_P1;HPM_P2
2021/11/21 00:00:00;;;;;;;;;;;;;;;;;;6251752;23;19938;-89
2021/11/21 00:02:26;;;;;;;;;;;;;;;;;;6252770;23;19928;-89
2021/11/21 00:04:53;;;;;;;;;;;;;;;;;;6256237;23;19920;-89
2021/11/21 00:07:19;;;;;;;;;;;;;;;;;;6257050;23;19923;-88
2021/11/21 00:09:45;;;;;;;;;;;;;;;;;;6265686;23;19907;-90
2021/11/21 00:12:11;;;;;;;;;;;;;;;;;;6265870;23;20025;-89
2021/11/21 00:14:38;;;;;;;;;;;;;;;;;;6252310;23;19930;-89
2021/11/21 00:17:07;;;;;;;;;;;;;;;;;;6251704;23;19927;-89
2021/11/21 00:19:33;;;;;;;;;;;;;;;;;;6252389;23;19947;-89
2021/11/21 00:21:59;;;;;;;;;;;;;;;;;;6253059;23;19923;-89
2021/11/21 00:24:25;;;;;;;;;;;;;;;;;;6252365;23;19934;-89
2021/11/21 00:26:52;;;;;;;;;;;;;;;;;;6253609;23;19950;-89
2021/11/21 00:29:18;;;;;;;;;;;;;;;;;;6252820;23;19923;-89
2021/11/21 00:31:44;;;;;;;;;;;;;;;;;;6251946;23;19924;-89
2021/11/21 00:34:11;;;;;;;;;;;;;;;;;;6253766;23;19923;-89
2021/11/21 00:36:37;;;;;;;;;;;;;;;;;;6255013;23;19920;-89
2021/11/21 00:39:03;;;;;;;;;;;;;;;;;;6253618;23;19923;-88
2021/11/21 00:41:29;;;;;;;;;;;;;;;;;;6252818;23;19923;-88
2021/11/21 00:43:56;;;;;;;;;;;;;;;;;;6254331;23;20409;-89
2021/11/21 00:46:23;;;;;;;;;;;;;;;;;;6255437;23;19923;-89
2021/11/21 00:48:49;;;;;;;;;;;;;;;;;;6255609;23;19923;-89
2021/11/21 00:51:18;;;;;;;;;;;;;;;;;;6255188;23;19927;-89
2021/11/21 00:53:44;;;;;;;;;;;;;;;;;;6255010;23;19956;-89
2021/11/21 00:56:11;;;;;;;;;;;;;;;;;;6254517;23;19928;-89
2021/11/21 00:58:37;;;;;;;;;;;;;;;;;;6255155;23;19923;-89
2021/11/21 01:01:03;;;;;;;;;;;;;;;;;;6254889;23;20413;-89
2021/11/21 01:03:29;;;;;;;;;;;;;;;;;;6255291;23;19920;-90
2021/11/21 01:05:56;;;;;;;;;;;;;;;;;;6255005;23;19943;-89
2021/11/21 01:08:22;;;;;;;;;;;;;;;;;;6254833;23;19924;-88
2021/11/21 01:10:48;;;;;;;;;;;;;;;;;;6251976;23;19954;-89
2021/11/21 01:13:14;;;;;;;;;;;;;;;;;;6252887;23;19942;-89
2021/11/21 01:15:41;;;;;;;;;;;;;;;;;;6255038;23;19926;-89
2021/11/21 01:18:07;;;;;;;;;;;;;;;;;;6255215;23;19931;-88
2021/11/21 01:20:33;;;;;;;;;;;;;;;;;;6254657;23;19920;-89
2021/11/21 01:22:59;;;;;;;;;;;;;;;;;;6254640;23;19927;-89
2021/11/21 01:25:26;;;;;;;;;;;;;;;;;;6254655;23;19928;-89
2021/11/21 01:27:52;;;;;;;;;;;;;;;;;;6253812;23;19930;-88
2021/11/21 01:30:18;;;;;;;;;;;;;;;;;;6252412;23;19943;-88
2021/11/21 01:32:44;;;;;;;;;;;;;;;;;;6253109;23;19931;-88
2021/11/21 01:35:11;;;;;;;;;;;;;;;;;;6253334;23;19981;-87
2021/11/21 01:37:37;;;;;;;;;;;;;;;;;;6253454;23;19931;-88
2021/11/21 01:40:03;;;;;;;;;;;;;;;;;;6254856;23;19955;-87
2021/11/21 01:42:30;;;;;;;;;;;;;;;;;;6253976;23;19919;-88
2021/11/21 01:44:56;;;;;;;;;;;;;;;;;;6253959;23;19926;-88
2021/11/21 01:47:22;;;;;;;;;;;;;;;;;;6253603;23;19923;-88
2021/11/21 01:49:48;;;;;;;;;;;;;;;;;;6253485;23;19923;-87
2021/11/21 01:52:15;;;;;;;;;;;;;;;;;;6252901;23;19923;-87
2021/11/21 01:54:41;;;;;;;;;;;;;;;;;;6253842;23;19928;-88
2021/11/21 01:57:07;;;;;;;;;;;;;;;;;;6253546;23;19924;-87
2021/11/21 01:59:33;;;;;;;;;;;;;;;;;;6252955;23;19931;-88
2021/11/21 02:02:00;;;;;;;;;;;;;;;;;;6252651;23;19924;-88
2021/11/21 02:04:26;;;;;;;;;;;;;;;;;;6253677;23;19993;-87
2021/11/21 02:06:52;;;;;;;;;;;;;;;;;;6254321;23;19929;-89
2021/11/21 02:09:18;;;;;;;;;;;;;;;;;;6254320;23;19920;-88
2021/11/21 02:11:45;;;;;;;;;;;;;;;;;;6254229;23;19930;-88
2021/11/21 02:14:11;;;;;;;;;;;;;;;;;;6254697;23;19928;-88
2021/11/21 02:16:37;;;;;;;;;;;;;;;;;;6254254;23;19930;-88
2021/11/21 02:19:03;;;;;;;;;;;;;;;;;;6254129;23;20021;-88
2021/11/21 02:21:30;;;;;;;;;;;;;;;;;;6253839;23;19931;-88
2021/11/21 02:23:56;;;;;;;;;;;;;;;;;;6253476;23;19930;-87
2021/11/21 02:26:22;;;;;;;;;;;;;;;;;;6253838;23;19920;-88
2021/11/21 02:28:48;;;;;;;;;;;;;;;;;;6253963;23;19954;-88
2021/11/21 02:31:15;;;;;;;;;;;;;;;;;;6254240;23;19930;-88
2021/11/21 02:33:41;;;;;;;;;;;;;;;;;;6253987;23;19958;-88
2021/11/21 02:36:07;;;;;;;;;;;;;;;;;;6253489;23;20436;-88
2021/11/21 02:38:33;;;;;;;;;;;;;;;;;;6253692;23;19943;-88
2021/11/21 02:41:00;;;;;;;;;;;;;;;;;;6253574;23;19931;-88
2021/11/21 02:43:26;;;;;;;;;;;;;;;;;;6254478;23;19924;-87
2021/11/21 02:45:52;;;;;;;;;;;;;;;;;;6255845;23;19924;-88
2021/11/21 02:48:20;;;;;;;;;;;;;;;;;;6258134;23;19919;-88
2021/11/21 02:50:46;;;;;;;;;;;;;;;;;;6261884;22;19926;-89
2021/11/21 02:53:12;;;;;;;;;;;;;;;;;;6269387;22;19904;-88
2021/11/21 02:55:38;;;;;;;;;;;;;;;;;;6254253;23;19927;-88
2021/11/21 02:58:05;;;;;;;;;;;;;;;;;;6252291;23;19923;-88
2021/11/21 03:00:33;;;;;;;;;;;;;;;;;;6253925;23;19930;-88
2021/11/21 03:02:59;;;;;;;;;;;;;;;;;;6254238;23;20565;-88
2021/11/21 03:05:25;;;;;;;;;;;;;;;;;;6251610;23;19931;-88
2021/11/21 03:07:51;;;;;;;;;;;;;;;;;;6251798;23;19923;-88
2021/11/21 03:10:19;;;;;;;;;;;;;;;;;;6253404;23;19923;-88
2021/11/21 03:12:45;;;;;;;;;;;;;;;;;;6253379;23;19930;-87
2021/11/21 03:15:12;;;;;;;;;;;;;;;;;;6252892;23;19934;-87
2021/11/21 03:17:42;;;;;;;;;;;;;;;;;;6252160;23;19927;-87
2021/11/21 03:20:09;;;;;;;;;;;;;;;;;;6253046;23;19924;-88
2021/11/21 03:22:35;;;;;;;;;;;;;;;;;;6253740;23;19930;-87
2021/11/21 03:25:01;;;;;;;;;;;;;;;;;;6251862;23;19927;-87
2021/11/21 03:27:28;;;;;;;;;;;;;;;;;;6250270;23;19987;-88
2021/11/21 03:29:54;;;;;;;;;;;;;;;;;;6252363;23;19920;-87
2021/11/21 03:32:20;;;;;;;;;;;;;;;;;;6252268;23;19923;-88
2021/11/21 03:34:46;;;;;;;;;;;;;;;;;;6253977;23;20312;-88
2021/11/21 03:37:13;;;;;;;;;;;;;;;;;;6253860;23;19923;-88
2021/11/21 03:39:39;;;;;;;;;;;;;;;;;;6253483;23;19934;-88
2021/11/21 03:42:05;;;;;;;;;;;;;;;;;;6253717;23;19926;-88
2021/11/21 03:44:31;;;;;;;;;;;;;;;;;;6251491;23;19927;-88
2021/11/21 03:46:58;;;;;;;;;;;;;;;;;;6250545;23;19926;-88
2021/11/21 03:49:24;;;;;;;;;;;;;;;;;;6253381;23;19919;-88
2021/11/21 03:51:50;;;;;;;;;;;;;;;;;;6253344;23;19927;-88
2021/11/21 03:54:16;;;;;;;;;;;;;;;;;;6252952;23;19924;-88
2021/11/21 03:56:43;;;;;;;;;;;;;;;;;;6252112;23;19930;-88
2021/11/21 03:59:09;;;;;;;;;;;;;;;;;;6252378;23;19931;-88
2021/11/21 04:01:35;;;;;;;;;;;;;;;;;;6252280;23;19919;-88
2021/11/21 04:04:05;;;;;;;;;;;;;;;;;;6253305;23;20341;-87
2021/11/21 04:06:31;;;;;;;;;;;;;;;;;;6252449;23;19971;-88
2021/11/21 04:08:57;;;;;;;;;;;;;;;;;;6252992;23;19923;-88
2021/11/21 04:11:24;;;;;;;;;;;;;;;;;;6251987;23;19976;-87
2021/11/21 04:13:50;;;;;;;;;;;;;;;;;;6252224;23;19919;-88
2021/11/21 04:16:16;;;;;;;;;;;;;;;;;;6252966;23;19923;-88
2021/11/21 04:18:43;;;;;;;;;;;;;;;;;;6253369;23;19924;-87
2021/11/21 04:21:09;;;;;;;;;;;;;;;;;;6251175;23;19926;-87
2021/11/21 04:23:36;;;;;;;;;;;;;;;;;;6251238;23;19920;-87
2021/11/21 04:26:02;;;;;;;;;;;;;;;;;;6253707;23;19926;-87
2021/11/21 04:28:28;;;;;;;;;;;;;;;;;;6252552;23;19924;-87
2021/11/21 04:30:55;;;;;;;;;;;;;;;;;;6252646;23;19934;-88
2021/11/21 04:33:21;;;;;;;;;;;;;;;;;;6253044;23;20400;-85
2021/11/21 04:35:47;;;;;;;;;;;;;;;;;;6253387;23;19924;-88
2021/11/21 04:38:13;;;;;;;;;;;;;;;;;;6253898;23;19967;-88
2021/11/21 04:40:40;;;;;;;;;;;;;;;;;;6250530;23;19979;-87
2021/11/21 04:43:06;;;;;;;;;;;;;;;;;;6251404;23;20451;-87
2021/11/21 04:45:32;;;;;;;;;;;;;;;;;;6252872;23;19924;-87
2021/11/21 04:47:58;;;;;;;;;;;;;;;;;;6253976;23;19926;-87
2021/11/21 04:50:25;;;;;;;;;;;;;;;;;;6252984;23;19924;-87
2021/11/21 04:52:51;;;;;;;;;;;;;;;;;;6253253;23;19920;-87
2021/11/21 04:55:17;;;;;;;;;;;;;;;;;;6252683;23;19924;-87
2021/11/21 04:57:43;;;;;;;;;;;;;;;;;;6252864;23;19958;-87
2021/11/21 05:00:10;;;;;;;;;;;;;;;;;;6250261;23;19923;-88
2021/11/21 05:02:40;;;;;;;;;;;;;;;;;;6250283;23;19924;-87
2021/11/21 05:05:06;;;;;;;;;;;;;;;;;;6251855;23;19924;-87
2021/11/21 05:07:32;;;;;;;;;;;;;;;;;;6252163;23;20668;-89
2021/11/21 05:09:59;;;;;;;;;;;;;;;;;;6250487;23;20163;-88
2021/11/21 05:12:25;;;;;;;;;;;;;;;;;;6250974;23;19932;-88
2021/11/21 05:14:53;;;;;;;;;;;;;;;;;;6254962;23;19930;-88
2021/11/21 05:17:20;;;;;;;;;;;;;;;;;;6255489;23;19923;-88
2021/11/21 05:19:46;;;;;;;;;;;;;;;;;;6254510;23;19930;-87
2021/11/21 05:22:12;;;;;;;;;;;;;;;;;;6254119;23;19927;-87
2021/11/21 05:24:38;;;;;;;;;;;;;;;;;;6254046;23;19926;-88
2021/11/21 05:27:05;;;;;;;;;;;;;;;;;;6254697;23;19923;-87
2021/11/21 05:29:31;;;;;;;;;;;;;;;;;;6257001;23;19926;-87
2021/11/21 05:31:57;;;;;;;;;;;;;;;;;;6262437;22;19907;-88
2021/11/21 05:34:23;;;;;;;;;;;;;;;;;;6269823;22;19908;-88
2021/11/21 05:36:50;;;;;;;;;;;;;;;;;;6257234;23;19923;-85
2021/11/21 05:39:16;;;;;;;;;;;;;;;;;;6253903;23;19930;-86
2021/11/21 05:41:43;;;;;;;;;;;;;;;;;;6254089;23;19923;-86
2021/11/21 05:44:09;;;;;;;;;;;;;;;;;;6253860;23;19934;-86
2021/11/21 05:46:35;;;;;;;;;;;;;;;;;;6254881;23;20014;-85
2021/11/21 05:49:01;;;;;;;;;;;;;;;;;;6254389;23;19928;-86
2021/11/21 05:51:28;;;;;;;;;;;;;;;;;;6254373;23;19926;-86
2021/11/21 05:53:54;;;;;;;;;;;;;;;;;;6253444;23;19919;-86
2021/11/21 05:56:20;;;;;;;;;;;;;;;;;;6250859;23;19926;-86
2021/11/21 05:58:47;;;;;;;;;;;;;;;;;;6251564;23;19928;-85
2021/11/21 06:01:13;;;;;;;;;;;;;;;;;;6254928;23;19919;-85
2021/11/21 06:03:40;;;;;;;;;;;;;;;;;;6254122;23;19934;-86
2021/11/21 06:06:06;;;;;;;;;;;;;;;;;;6250947;23;19924;-85
2021/11/21 06:08:32;;;;;;;;;;;;;;;;;;6251627;23;19935;-85
2021/11/21 06:10:58;;;;;;;;;;;;;;;;;;6253272;23;19927;-86
2021/11/21 06:13:25;;;;;;;;;;;;;;;;;;6253318;23;19919;-86
2021/11/21 06:15:54;;;;;;;;;;;;;;;;;;6252259;23;19946;-86
2021/11/21 06:18:20;;;;;;;;;;;;;;;;;;6252731;23;19923;-86
2021/11/21 06:20:46;;;;;;;;;;;;;;;;;;6254632;23;19920;-87
2021/11/21 06:23:13;;;;;;;;;;;;;;;;;;6254100;23;19931;-85
2021/11/21 06:25:39;;;;;;;;;;;;;;;;;;6253726;23;20324;-86
2021/11/21 06:28:05;;;;;;;;;;;;;;;;;;6253831;23;19934;-86
2021/11/21 06:30:32;;;;;;;;;;;;;;;;;;6251065;23;19930;-86
2021/11/21 06:32:58;;;;;;;;;;;;;;;;;;6251924;23;19927;-87
2021/11/21 06:35:24;;;;;;;;;;;;;;;;;;6251159;23;19923;-87
2021/11/21 06:37:50;;;;;;;;;;;;;;;;;;6250661;23;19924;-86
2021/11/21 06:40:17;;;;;;;;;;;;;;;;;;6253328;23;19923;-87
2021/11/21 06:42:43;;;;;;;;;;;;;;;;;;6253139;23;20773;-88
2021/11/21 06:45:09;;;;;;;;;;;;;;;;;;6254262;23;19946;-87
2021/11/21 06:47:35;;;;;;;;;;;;;;;;;;6253459;23;19973;-87
2021/11/21 06:50:02;;;;;;;;;;;;;;;;;;6252268;23;19919;-87
2021/11/21 06:52:30;;;;;;;;;;;;;;;;;;6251110;23;19926;-87
2021/11/21 06:54:56;;;;;;;;;;;;;;;;;;6251807;23;19923;-87
2021/11/21 06:57:22;;;;;;;;;;;;;;;;;;6251927;23;19934;-87
2021/11/21 06:59:49;;;;;;;;;;;;;;;;;;6251461;23;19965;-87
2021/11/21 07:02:15;;;;;;;;;;;;;;;;;;6252675;23;19946;-88
2021/11/21 07:04:41;;;;;;;;;;;;;;;;;;6249139;23;19930;-87
2021/11/21 07:07:07;;;;;;;;;;;;;;;;;;6251201;23;19923;-87
2021/11/21 07:09:34;;;;;;;;;;;;;;;;;;6252996;23;19923;-87
2021/11/21 07:12:00;;;;;;;;;;;;;;;;;;6253227;23;19923;-87
2021/11/21 07:14:26;;;;;;;;;;;;;;;;;;6251125;23;19930;-87
2021/11/21 07:16:52;;;;;;;;;;;;;;;;;;6250179;23;19924;-87
2021/11/21 07:19:19;;;;;;;;;;;;;;;;;;6252104;23;19923;-87
2021/11/21 07:21:45;;;;;;;;;;;;;;;;;;6253674;23;19920;-88
2021/11/21 07:24:11;;;;;;;;;;;;;;;;;;6253170;23;19923;-88
2021/11/21 07:26:38;;;;;;;;;;;;;;;;;;6251819;23;19924;-87
2021/11/21 07:29:04;;;;;;;;;;;;;;;;;;6252838;23;19927;-87
2021/11/21 07:31:31;;;;;;;;;;;;;;;;;;6253673;23;19943;-88
2021/11/21 07:33:57;;;;;;;;;;;;;;;;;;6252738;23;20022;-88
2021/11/21 07:36:23;;;;;;;;;;;;;;;;;;6250820;23;19977;-87
2021/11/21 07:38:49;;;;;;;;;;;;;;;;;;6250847;23;19930;-87
2021/11/21 07:41:16;;;;;;;;;;;;;;;;;;6250794;23;19923;-87
2021/11/21 07:43:42;;;;;;;;;;;;;;;;;;6250115;23;19923;-88
2021/11/21 07:46:08;;;;;;;;;;;;;;;;;;6252770;23;19927;-88
2021/11/21 07:48:35;;;;;;;;;;;;;;;;;;6253187;23;19919;-88
2021/11/21 07:51:01;;;;;;;;;;;;;;;;;;6253586;23;19966;-87
2021/11/21 07:53:27;;;;;;;;;;;;;;;;;;6252164;23;19919;-88
2021/11/21 07:55:53;;;;;;;;;;;;;;;;;;6252423;23;20672;-88
2021/11/21 07:58:20;;;;;;;;;;;;;;;;;;6252972;23;19941;-88
2021/11/21 08:00:46;;;;;;;;;;;;;;;;;;6253148;23;19930;-88
2021/11/21 08:03:12;;;;;;;;;;;;;;;;;;6253505;23;19926;-88
2021/11/21 08:05:38;;;;;;;;;;;;;;;;;;6251380;23;19923;-88
2021/11/21 08:08:05;;;;;;;;;;;;;;;;;;6251418;23;19923;-88
2021/11/21 08:10:31;;;;;;;;;;;;;;;;;;6262688;23;19907;-88
2021/11/21 08:12:57;;;;;;;;;;;;;;;;;;6256692;23;19923;-89
2021/11/21 08:15:24;;;;;;;;;;;;;;;;;;6251371;23;19923;-87
2021/11/21 08:17:50;;;;;;;;;;;;;;;;;;6250681;23;19923;-88
2021/11/21 08:20:16;;;;;;;;;;;;;;;;;;6250043;23;19931;-89
2021/11/21 08:22:42;;;;;;;;;;;;;;;;;;6249571;23;19930;-89
2021/11/21 08:25:09;;;;;;;;;;;;;;;;;;6251981;23;19927;-89
2021/11/21 08:27:35;;;;;;;;;;;;;;;;;;6252388;23;19927;-89
2021/11/21 08:30:01;;;;;;;;;;;;;;;;;;6252759;23;19919;-90
2021/11/21 08:32:27;;;;;;;;;;;;;;;;;;6252362;23;19927;-88
2021/11/21 08:34:54;;;;;;;;;;;;;;;;;;6252627;23;19930;-90
2021/11/21 08:37:20;;;;;;;;;;;;;;;;;;6252839;23;20257;-90
2021/11/21 08:39:46;;;;;;;;;;;;;;;;;;6251014;23;19924;-90
2021/11/21 08:42:13;;;;;;;;;;;;;;;;;;6250112;23;19930;-92
2021/11/21 08:44:39;;;;;;;;;;;;;;;;;;6250847;23;20208;-89
2021/11/21 08:47:05;;;;;;;;;;;;;;;;;;6252487;23;19930;-89
2021/11/21 08:49:31;;;;;;;;;;;;;;;;;;6252308;23;19924;-90
2021/11/21 08:51:58;;;;;;;;;;;;;;;;;;6253925;23;19923;-89
2021/11/21 08:54:24;;;;;;;;;;;;;;;;;;6253132;23;19927;-90
2021/11/21 08:56:50;;;;;;;;;;;;;;;;;;6254077;23;19927;-89
2021/11/21 08:59:16;;;;;;;;;;;;;;;;;;6253096;23;19927;-88
2021/11/21 09:01:43;;;;;;;;;;;;;;;;;;6251783;23;19924;-89
2021/11/21 09:04:10;;;;;;;;;;;;;;;;;;6252887;23;19924;-88
2021/11/21 09:06:37;;;;;;;;;;;;;;;;;;6253665;23;20265;-89
2021/11/21 09:09:03;;;;;;;;;;;;;;;;;;6253264;23;19919;-89
2021/11/21 09:11:29;;;;;;;;;;;;;;;;;;6251657;23;19942;-89
2021/11/21 09:13:55;;;;;;;;;;;;;;;;;;6252287;23;19923;-88
2021/11/21 09:16:22;;;;;;;;;;;;;;;;;;6254052;23;19938;-89
2021/11/21 09:18:48;;;;;;;;;;;;;;;;;;6251658;23;19924;-89
2021/11/21 09:21:14;;;;;;;;;;;;;;;;;;6251114;23;19947;-89
2021/11/21 09:23:41;;;;;;;;;;;;;;;;;;6252390;23;19924;-88
2021/11/21 09:26:07;;;;;;;;;;;;;;;;;;6253384;23;19946;-88
2021/11/21 09:28:33;;;;;;;;;;;;;;;;;;6254189;23;20452;-89
2021/11/21 09:31:00;;;;;;;;;;;;;;;;;;6250061;23;19943;-91
2021/11/21 09:33:26;;;;;;;;;;;;;;;;;;6246505;23;19923;-90
2021/11/21 09:35:52;;;;;;;;;;;;;;;;;;6253662;23;19926;-91
2021/11/21 09:38:19;;;;;;;;;;;;;;;;;;6254164;23;19930;-90
2021/11/21 09:40:45;;;;;;;;;;;;;;;;;;6249102;23;19930;-90
2021/11/21 09:43:11;;;;;;;;;;;;;;;;;;6251516;23;19936;-90
2021/11/21 09:45:38;;;;;;;;;;;;;;;;;;6254249;23;19924;-90
2021/11/21 09:48:05;;;;;;;;;;;;;;;;;;6253387;23;19924;-91
2021/11/21 09:50:31;;;;;;;;;;;;;;;;;;6254317;23;19926;-90
2021/11/21 09:52:58;;;;;;;;;;;;;;;;;;6254054;23;20338;-90
2021/11/21 09:55:25;;;;;;;;;;;;;;;;;;6252673;23;19924;-91
2021/11/21 09:57:53;;;;;;;;;;;;;;;;;;6251236;23;19934;-89
2021/11/21 10:00:19;;;;;;;;;;;;;;;;;;6252624;23;19977;-90
2021/11/21 10:02:45;;;;;;;;;;;;;;;;;;6252855;23;19923;-90
2021/11/21 10:05:12;;;;;;;;;;;;;;;;;;6254166;23;19923;-90
2021/11/21 10:07:38;;;;;;;;;;;;;;;;;;6254020;23;19923;-90
2021/11/21 10:10:04;;;;;;;;;;;;;;;;;;6253172;23;20357;-91
2021/11/21 10:12:30;;;;;;;;;;;;;;;;;;6253254;23;19926;-91
2021/11/21 10:14:57;;;;;;;;;;;;;;;;;;6254341;23;19919;-91
2021/11/21 10:17:23;;;;;;;;;;;;;;;;;;6254322;23;19930;-89
2021/11/21 10:19:50;;;;;;;;;;;;;;;;;;6252190;23;19923;-90
2021/11/21 10:22:16;;;;;;;;;;;;;;;;;;6252458;23;19923;-90
2021/11/21 10:24:43;;;;;;;;;;;;;;;;;;6252645;23;20385;-89
2021/11/21 10:27:10;;;;;;;;;;;;;;;;;;6249994;23;19949;-89
2021/11/21 10:29:36;;;;;;;;;;;;;;;;;;6253960;23;19919;-91
2021/11/21 10:32:03;;;;;;;;;;;;;;;;;;6252397;23;19919;-88
2021/11/21 10:34:29;;;;;;;;;;;;;;;;;;6253106;23;19933;-89
2021/11/21 10:36:55;;;;;;;;;;;;;;;;;;6254706;23;19923;-90
2021/11/21 10:39:22;;;;;;;;;;;;;;;;;;6254703;23;19924;-91
2021/11/21 10:41:51;;;;;;;;;;;;;;;;;;6253910;23;19923;-89
2021/11/21 10:44:17;;;;;;;;;;;;;;;;;;6255759;23;19935;-87
2021/11/21 10:46:44;;;;;;;;;;;;;;;;;;6259394;23;19923;-88
2021/11/21 10:49:10;;;;;;;;;;;;;;;;;;6255625;23;19930;-88
2021/11/21 10:51:36;;;;;;;;;;;;;;;;;;6250427;23;20405;-88
2021/11/21 10:54:02;;;;;;;;;;;;;;;;;;6252322;23;19927;-88
2021/11/21 10:56:30;;;;;;;;;;;;;;;;;;6253283;23;19923;-88
2021/11/21 10:58:56;;;;;;;;;;;;;;;;;;6253334;23;19927;-89
2021/11/21 11:01:23;;;;;;;;;;;;;;;;;;6250874;23;19923;-88
2021/11/21 11:03:49;;;;;;;;;;;;;;;;;;6250224;23;19920;-89
2021/11/21 11:06:16;;;;;;;;;;;;;;;;;;6250489;23;19923;-88
2021/11/21 11:08:42;;;;;;;;;;;;;;;;;;6251257;23;19968;-88
2021/11/21 11:11:12;;;;;;;;;;;;;;;;;;6253201;23;19923;-88
2021/11/21 11:13:38;;;;;;;;;;;;;;;;;;6253536;23;19930;-88
2021/11/21 11:16:05;;;;;;;;;;;;;;;;;;6253359;23;19927;-88
2021/11/21 11:18:31;;;;;;;;;;;;;;;;;;6253327;23;21160;-89
2021/11/21 11:20:58;;;;;;;;;;;;;;;;;;6252922;23;19923;-89
2021/11/21 11:23:24;;;;;;;;;;;;;;;;;;6252792;23;19919;-88
2021/11/21 11:25:51;;;;;;;;;;;;;;;;;;6252488;23;19960;-88
2021/11/21 11:28:17;;;;;;;;;;;;;;;;;;6252206;23;20245;-88
2021/11/21 11:30:43;;;;;;;;;;;;;;;;;;6253577;23;19920;-88
2021/11/21 11:33:10;;;;;;;;;;;;;;;;;;6252683;23;19967;-89
2021/11/21 11:35:36;;;;;;;;;;;;;;;;;;6254001;23;19950;-89
2021/11/21 11:38:02;;;;;;;;;;;;;;;;;;6252996;23;19923;-89
2021/11/21 11:40:28;;;;;;;;;;;;;;;;;;6248431;23;19924;-90
2021/11/21 11:42:55;;;;;;;;;;;;;;;;;;6247420;23;20358;-90
2021/11/21 11:45:21;;;;;;;;;;;;;;;;;;6251847;23;19943;-89
2021/11/21 11:47:47;;;;;;;;;;;;;;;;;;6252934;23;19971;-89
2021/11/21 11:50:14;;;;;;;;;;;;;;;;;;6253525;23;20539;-89
2021/11/21 11:52:40;;;;;;;;;;;;;;;;;;6253992;23;19919;-90
2021/11/21 11:55:06;;;;;;;;;;;;;;;;;;6252898;23;19919;-90
2021/11/21 11:57:32;;;;;;;;;;;;;;;;;;6251372;23;19930;-91
2021/11/21 11:59:59;;;;;;;;;;;;;;;;;;6250360;23;20004;-89
2021/11/21 12:02:27;;;;;;;;;;;;;;;;;;6251891;23;19923;-88
2021/11/21 12:04:53;;;;;;;;;;;;;;;;;;6252757;23;19923;-88
2021/11/21 12:07:19;;;;;;;;;;;;;;;;;;6249952;23;19926;-89
2021/11/21 12:09:46;;;;;;;;;;;;;;;;;;6247558;23;19929;-89
2021/11/21 12:12:12;;;;;;;;;;;;;;;;;;6247964;23;19924;-89
2021/11/21 12:14:38;;;;;;;;;;;;;;;;;;6249840;23;19939;-88
2021/11/21 12:17:04;;;;;;;;;;;;;;;;;;6252501;23;19926;-89
2021/11/21 12:19:31;;;;;;;;;;;;;;;;;;6253105;23;19919;-89
2021/11/21 12:21:59;;;;;;;;;;;;;;;;;;6249883;23;19924;-89
2021/11/21 12:24:25;;;;;;;;;;;;;;;;;;6255170;23;19938;-88
2021/11/21 12:26:52;;;;;;;;;;;;;;;;;;6254527;23;19963;-89
2021/11/21 12:29:22;;;;;;;;;;;;;;;;;;6253982;23;19927;-89
2021/11/21 12:31:48;;;;;;;;;;;;;;;;;;6251870;23;19920;-88
2021/11/21 12:34:15;;;;;;;;;;;;;;;;;;6251065;23;19919;-90
2021/11/21 12:36:41;;;;;;;;;;;;;;;;;;6250623;23;19920;-89
2021/11/21 12:39:07;;;;;;;;;;;;;;;;;;6251252;23;19926;-89
2021/11/21 12:41:33;;;;;;;;;;;;;;;;;;6255012;23;19926;-90
2021/11/21 12:44:00;;;;;;;;;;;;;;;;;;6255807;23;20322;-89
2021/11/21 12:46:26;;;;;;;;;;;;;;;;;;6255849;23;19950;-89
2021/11/21 12:48:52;;;;;;;;;;;;;;;;;;6254198;23;19923;-90
2021/11/21 12:51:20;;;;;;;;;;;;;;;;;;6254389;23;19924;-88
2021/11/21 12:53:46;;;;;;;;;;;;;;;;;;6254289;23;19949;-89
2021/11/21 12:56:13;;;;;;;;;;;;;;;;;;6253119;23;20610;-90
2021/11/21 12:58:39;;;;;;;;;;;;;;;;;;6253849;23;19946;-90
2021/11/21 13:01:06;;;;;;;;;;;;;;;;;;6253573;23;19923;-90
2021/11/21 13:03:32;;;;;;;;;;;;;;;;;;6254367;23;19927;-91
2021/11/21 13:05:59;;;;;;;;;;;;;;;;;;6252849;23;19924;-91
2021/11/21 13:08:25;;;;;;;;;;;;;;;;;;6252451;23;20363;-90
2021/11/21 13:10:52;;;;;;;;;;;;;;;;;;6255983;23;19926;-90
2021/11/21 13:13:18;;;;;;;;;;;;;;;;;;6253106;23;19939;-88
2021/11/21 13:15:44;;;;;;;;;;;;;;;;;;6261265;22;19934;-91
2021/11/21 13:18:11;;;;;;;;;;;;;;;;;;6254226;23;20105;-91
2021/11/21 13:20:37;;;;;;;;;;;;;;;;;;6247712;23;19923;-89
2021/11/21 13:23:03;;;;;;;;;;;;;;;;;;6253235;23;19930;-92
2021/11/21 13:25:29;;;;;;;;;;;;;;;;;;6253924;23;19926;-90
2021/11/21 13:27:56;;;;;;;;;;;;;;;;;;6252465;23;19926;-90
2021/11/21 13:30:22;;;;;;;;;;;;;;;;;;6253236;23;20446;-90
2021/11/21 13:32:48;;;;;;;;;;;;;;;;;;6252403;23;19930;-88
2021/11/21 13:35:14;;;;;;;;;;;;;;;;;;6254285;23;19926;-90
2021/11/21 13:37:41;;;;;;;;;;;;;;;;;;6252847;23;19934;-91
2021/11/21 13:40:07;;;;;;;;;;;;;;;;;;6252592;23;19924;-91
2021/11/21 13:42:33;;;;;;;;;;;;;;;;;;6248803;23;19923;-88
2021/11/21 13:44:59;;;;;;;;;;;;;;;;;;6253513;23;19957;-89
2021/11/21 13:47:27;;;;;;;;;;;;;;;;;;6253094;23;19932;-91
2021/11/21 13:49:54;;;;;;;;;;;;;;;;;;6252819;23;19924;-90
2021/11/21 13:52:20;;;;;;;;;;;;;;;;;;6254372;23;19930;-90
2021/11/21 13:54:47;;;;;;;;;;;;;;;;;;6252772;23;19930;-93
2021/11/21 13:57:14;;;;;;;;;;;;;;;;;;6253939;23;19974;-88
2021/11/21 13:59:40;;;;;;;;;;;;;;;;;;6252848;23;19946;-90
2021/11/21 14:02:07;;;;;;;;;;;;;;;;;;6253189;23;19919;-89
2021/11/21 14:04:34;;;;;;;;;;;;;;;;;;6251837;23;19923;-88
2021/11/21 14:07:01;;;;;;;;;;;;;;;;;;6248780;23;19923;-88
2021/11/21 14:09:27;;;;;;;;;;;;;;;;;;6253765;23;19924;-88
2021/11/21 14:11:53;;;;;;;;;;;;;;;;;;6253867;23;19924;-89
2021/11/21 14:14:20;;;;;;;;;;;;;;;;;;6254193;23;20687;-89
2021/11/21 14:16:46;;;;;;;;;;;;;;;;;;6253706;23;19923;-89
2021/11/21 14:19:13;;;;;;;;;;;;;;;;;;6253330;23;19928;-89
2021/11/21 14:21:39;;;;;;;;;;;;;;;;;;6253020;23;19930;-88
2021/11/21 14:24:05;;;;;;;;;;;;;;;;;;6253369;23;20051;-89
2021/11/21 14:26:31;;;;;;;;;;;;;;;;;;6253493;23;19923;-89
2021/11/21 14:28:58;;;;;;;;;;;;;;;;;;6249279;23;19923;-91
2021/11/21 14:31:24;;;;;;;;;;;;;;;;;;6250098;23;19947;-91
2021/11/21 14:33:51;;;;;;;;;;;;;;;;;;6248357;23;19923;-88
2021/11/21 14:36:17;;;;;;;;;;;;;;;;;;6254054;23;19954;-89
2021/11/21 14:38:43;;;;;;;;;;;;;;;;;;6253820;23;19930;-89
2021/11/21 14:41:09;;;;;;;;;;;;;;;;;;6253497;23;19923;-88
2021/11/21 14:43:36;;;;;;;;;;;;;;;;;;6250255;23;19920;-87
2021/11/21 14:46:02;;;;;;;;;;;;;;;;;;6250883;23;20005;-87
2021/11/21 14:48:28;;;;;;;;;;;;;;;;;;6249361;23;19923;-89
2021/11/21 14:50:55;;;;;;;;;;;;;;;;;;6252041;23;19919;-88
2021/11/21 14:53:21;;;;;;;;;;;;;;;;;;6252514;23;19950;-88
2021/11/21 14:55:55;;;;;;;;;;;;;;;;;;6249881;23;19943;-88
2021/11/21 14:58:26;;;;;;;;;;;;;;;;;;6249787;23;20007;-90
2021/11/21 15:00:52;;;;;;;;;;;;;;;;;;6253009;23;19923;-91
2021/11/21 15:03:19;;;;;;;;;;;;;;;;;;6253337;23;19923;-91
2021/11/21 15:05:45;;;;;;;;;;;;;;;;;;6252821;23;20417;-89
2021/11/21 15:08:11;;;;;;;;;;;;;;;;;;6253596;23;19935;-91
2021/11/21 15:10:37;;;;;;;;;;;;;;;;;;6252447;23;19919;-87
2021/11/21 15:13:04;;;;;;;;;;;;;;;;;;6253157;23;19923;-88
2021/11/21 15:15:30;;;;;;;;;;;;;;;;;;6251863;23;19927;-89
2021/11/21 15:17:56;;;;;;;;;;;;;;;;;;6252482;23;19931;-88
2021/11/21 15:20:22;;;;;;;;;;;;;;;;;;6252654;23;19924;-87
2021/11/21 15:22:49;;;;;;;;;;;;;;;;;;6253562;23;20714;-87
2021/11/21 15:25:15;;;;;;;;;;;;;;;;;;6251240;23;19931;-91
2021/11/21 15:27:41;;;;;;;;;;;;;;;;;;6250934;23;19927;-90
2021/11/21 15:30:08;;;;;;;;;;;;;;;;;;6250852;23;19923;-88
2021/11/21 15:32:34;;;;;;;;;;;;;;;;;;6250997;23;19930;-88
2021/11/21 15:35:00;;;;;;;;;;;;;;;;;;6251453;23;19919;-89
2021/11/21 15:37:27;;;;;;;;;;;;;;;;;;6253651;23;19928;-88
2021/11/21 15:39:53;;;;;;;;;;;;;;;;;;6258548;23;19924;-90
2021/11/21 15:42:19;;;;;;;;;;;;;;;;;;6253443;23;19923;-91
2021/11/21 15:44:45;;;;;;;;;;;;;;;;;;6249627;23;19920;-91
2021/11/21 15:47:12;;;;;;;;;;;;;;;;;;6257791;23;19919;-90
2021/11/21 15:49:40;;;;;;;;;;;;;;;;;;6250836;23;19924;-92
2021/11/21 15:52:06;;;;;;;;;;;;;;;;;;6249880;23;19920;-90
2021/11/21 15:54:32;;;;;;;;;;;;;;;;;;6248534;23;19938;-93
2021/11/21 15:57:00;;;;;;;;;;;;;;;;;;6250537;23;20652;-91
2021/11/21 15:59:26;;;;;;;;;;;;;;;;;;6252134;23;19923;-89
2021/11/21 16:01:52;;;;;;;;;;;;;;;;;;6252121;23;19927;-91
2021/11/21 16:04:18;;;;;;;;;;;;;;;;;;6252044;23;19919;-92
2021/11/21 16:06:45;;;;;;;;;;;;;;;;;;6250271;23;20285;-92
2021/11/21 16:09:11;;;;;;;;;;;;;;;;;;6249715;23;19930;-92
2021/11/21 16:11:37;;;;;;;;;;;;;;;;;;6249012;23;19930;-92
2021/11/21 16:14:04;;;;;;;;;;;;;;;;;;6249050;23;19931;-92
2021/11/21 16:16:30;;;;;;;;;;;;;;;;;;6249196;23;19923;-93
2021/11/21 16:18:56;;;;;;;;;;;;;;;;;;6249543;23;19954;-91
2021/11/21 16:21:23;;;;;;;;;;;;;;;;;;6251000;23;19924;-92
2021/11/21 16:23:50;;;;;;;;;;;;;;;;;;6252338;23;19931;-91
2021/11/21 16:26:17;;;;;;;;;;;;;;;;;;6250915;23;19924;-92
2021/11/21 16:28:45;;;;;;;;;;;;;;;;;;6250830;23;20000;-92
2021/11/21 16:31:11;;;;;;;;;;;;;;;;;;6250825;23;19919;-92
2021/11/21 16:33:38;;;;;;;;;;;;;;;;;;6247597;23;19928;-93
2021/11/21 16:36:04;;;;;;;;;;;;;;;;;;6250961;23;20027;-92
2021/11/21 16:38:30;;;;;;;;;;;;;;;;;;6250617;23;19930;-92